New Burlingtn, Indiana
Current Conditions -  °F | °C
As of 5:23 PM on Sunday 25 Jan 2015 (Local Time) from KMIE Reporting Station
Moderate Snow Moderate Snow  
Wind Chill: 14°   Ceiling: 800
Heat Index: 27°   Visibility: 0.25mi
Dew Point: 24°   Wind: 17mph
Humidity: 89%   Direction: 50°NE
Pressure: 29.72"   Gusts: NA
Location:  40.1286°N, 85.3767°W
Report Text: KMIE 252223Z 05015KT 1/4SM SN FZFG BKN008 OVC015 M03/M04 A2972 RMK AO2 P0001 T10281044
Loading
Personal Weather Stations






























Interactive Weather Map New forecast layout! Learn more

10-Day Weather Forecast

Advertisements
Track Severe Weather on mobile